OMDBOPPS

Guest
Details From OMDB - Dubai Intl
To OPPS - Peshawar Intl
Flight Number -
Tags Generated
Created
Modified
Stats Distance 992 nm / 1,837 km
Max Altitude 0 ft / 0 m
Waypoints 3
Social Downloads 4
Likes 0
Share VATSIM

Download

Looking for another format? Having issues loading an existing format? Contact us
Advertisement - Login to hide

Notes

Generated

Route

OMDB PS OPPS

ID Type Via Altitude Latitude Longitude Leg Dist Tot Dist Heading (true) Name
O OMDB APT - 0 ft / 0 m 25.26213˚ 55.34757˚ - 0 nm - -
PS NDB - 0 ft / 0 m 33.99583˚ 71.50444˚ 991 nm 991 nm 54° / 62° PESHAWAR NDB
O OPPS APT - 0 ft / 0 m 34.00601˚ 71.51354˚ 0 nm 992 nm 37° / 37° -

Altitude Profile

Advertisement - Login to hide

Weather


0- 5 10 15 20 25 30 35+ Temperature / ° C

Clouds and Precipitation
Forecast for 2018-05-20 18:00 UTC. Updated 6 hours ago

Ground ~20,000 ft ~40,000 ft Winds

OMDB

Details ICAO OMDB (DXB)
Name DUBAI INTL
Region United Arab Emirates
Timezone Asia/Dubai (UTC+4.0)
Stats Elevation 62 ft / 19 m (AMSL)
Location 25.254912° 55.364260°
Runways 2
Magnetic Variation 2.068° E

METAR

OMDB 202300Z 08003KT 010V140 CAVOK 29/22 Q1007 NOSIG

Decode

TAF

TAF OMDB 201709Z 2018/2200 34010KT 8000 NSC BECMG 2019/2021 09005KT PROB30 2101/2104 4000 HZ BECMG 2107/2109 35014KT BECMG 2116/2118 09005KT

Decode

Departure Runways

ID Width Length Bearing (true) Bearing (mag) Surface Threshold Offset Overrun Length
12L 197 ft / 60 m 13,124 ft / 4,000 m 121.49° 119.42° Asphalt 1,312 ft / 400 m 395 ft / 120 m
12R 151 ft / 46 m 13,139 ft / 4,005 m 121.48° 119.41° Asphalt 394 ft / 120 m 197 ft / 60 m
30L 151 ft / 46 m 13,139 ft / 4,005 m 301.50° 299.43° Asphalt 2,953 ft / 900 m 197 ft / 60 m
30R 197 ft / 60 m 13,124 ft / 4,000 m 301.51° 299.44° Asphalt 0 ft / 0 m 395 ft / 120 m

OPPS

Details ICAO OPPS (PEW)
Name OPPS Peshawar, Peshawar Intl Airport
Region Pakistan
Timezone Asia/Karachi (UTC+5.0)
Stats Elevation 1,158 ft / 353 m (AMSL)
Location 33.993911° 71.514581°
Runways 1
Magnetic Variation 2.860° E

METAR

OPPS 202300Z 13004KT 5000 HZ FEW040 21/12 Q1009

Decode

TAF

Not found

Destination Runways

ID Width Length Bearing (true) Bearing (mag) Surface Threshold Offset Overrun Length
17 151 ft / 46 m 9,008 ft / 2,746 m 176.00° 173.14° Asphalt 0 ft / 0 m 791 ft / 241 m
35 151 ft / 46 m 9,008 ft / 2,746 m 356.00° 353.14° Asphalt 0 ft / 0 m 1,047 ft / 319 m